sensor_id;sensor_type;location;lat;lon;timestamp;P1;durP1;ratioP1;P2;durP2;ratioP2
11006;SDS011;8186;57.652;11.968;2024-02-28T00:00:53;7.50;;;6.67;;
11006;SDS011;8186;57.652;11.968;2024-02-28T00:03:20;6.90;;;5.83;;
11006;SDS011;8186;57.652;11.968;2024-02-28T00:05:49;7.37;;;6.23;;
11006;SDS011;8186;57.652;11.968;2024-02-28T00:08:15;6.03;;;5.43;;
11006;SDS011;8186;57.652;11.968;2024-02-28T00:10:44;8.53;;;6.80;;
11006;SDS011;8186;57.652;11.968;2024-02-28T00:13:11;6.30;;;5.43;;
11006;SDS011;8186;57.652;11.968;2024-02-28T00:15:38;8.60;;;6.93;;
11006;SDS011;8186;57.652;11.968;2024-02-28T00:18:06;6.37;;;5.77;;
11006;SDS011;8186;57.652;11.968;2024-02-28T00:20:33;6.70;;;5.93;;
11006;SDS011;8186;57.652;11.968;2024-02-28T00:23:01;7.50;;;6.77;;
11006;SDS011;8186;57.652;11.968;2024-02-28T00:25:27;7.10;;;6.30;;
11006;SDS011;8186;57.652;11.968;2024-02-28T00:27:54;8.03;;;7.20;;
11006;SDS011;8186;57.652;11.968;2024-02-28T00:30:21;8.03;;;7.00;;
11006;SDS011;8186;57.652;11.968;2024-02-28T00:32:48;7.93;;;6.23;;
11006;SDS011;8186;57.652;11.968;2024-02-28T00:35:16;7.83;;;7.03;;
11006;SDS011;8186;57.652;11.968;2024-02-28T00:37:43;7.60;;;6.80;;
11006;SDS011;8186;57.652;11.968;2024-02-28T00:40:12;8.87;;;6.60;;
11006;SDS011;8186;57.652;11.968;2024-02-28T00:42:39;8.60;;;7.37;;
11006;SDS011;8186;57.652;11.968;2024-02-28T00:45:07;8.77;;;7.57;;
11006;SDS011;8186;57.652;11.968;2024-02-28T00:47:35;8.40;;;7.23;;
11006;SDS011;8186;57.652;11.968;2024-02-28T00:50:03;8.27;;;6.93;;
11006;SDS011;8186;57.652;11.968;2024-02-28T00:52:32;8.47;;;7.67;;
11006;SDS011;8186;57.652;11.968;2024-02-28T00:54:59;8.10;;;7.23;;
11006;SDS011;8186;57.652;11.968;2024-02-28T00:57:26;8.37;;;6.87;;
11006;SDS011;8186;57.652;11.968;2024-02-28T00:59:52;7.83;;;7.03;;
11006;SDS011;8186;57.652;11.968;2024-02-28T01:02:20;7.40;;;6.60;;
11006;SDS011;8186;57.652;11.968;2024-02-28T01:04:47;9.83;;;7.20;;
11006;SDS011;8186;57.652;11.968;2024-02-28T01:07:14;7.90;;;7.10;;
11006;SDS011;8186;57.652;11.968;2024-02-28T01:09:42;8.20;;;6.97;;
11006;SDS011;8186;57.652;11.968;2024-02-28T01:12:09;7.37;;;6.57;;
11006;SDS011;8186;57.652;11.968;2024-02-28T01:14:36;6.80;;;6.10;;
11006;SDS011;8186;57.652;11.968;2024-02-28T01:17:03;8.37;;;6.17;;
11006;SDS011;8186;57.652;11.968;2024-02-28T01:19:30;8.57;;;5.90;;
11006;SDS011;8186;57.652;11.968;2024-02-28T01:21:57;6.83;;;6.13;;
11006;SDS011;8186;57.652;11.968;2024-02-28T01:24:24;7.30;;;5.97;;
11006;SDS011;8186;57.652;11.968;2024-02-28T01:26:53;6.50;;;5.60;;
11006;SDS011;8186;57.652;11.968;2024-02-28T01:29:19;6.83;;;6.13;;
11006;SDS011;8186;57.652;11.968;2024-02-28T01:31:46;8.77;;;5.87;;
11006;SDS011;8186;57.652;11.968;2024-02-28T01:34:13;6.47;;;5.77;;
11006;SDS011;8186;57.652;11.968;2024-02-28T01:36:40;7.00;;;5.50;;
11006;SDS011;8186;57.652;11.968;2024-02-28T01:39:07;6.53;;;5.93;;
11006;SDS011;8186;57.652;11.968;2024-02-28T01:41:34;6.53;;;5.90;;
11006;SDS011;8186;57.652;11.968;2024-02-28T01:44:02;6.90;;;6.20;;
11006;SDS011;8186;57.652;11.968;2024-02-28T01:46:29;7.07;;;6.23;;
11006;SDS011;8186;57.652;11.968;2024-02-28T01:48:57;7.60;;;6.23;;
11006;SDS011;8186;57.652;11.968;2024-02-28T01:51:25;8.00;;;6.83;;
11006;SDS011;8186;57.652;11.968;2024-02-28T01:53:53;7.93;;;6.87;;
11006;SDS011;8186;57.652;11.968;2024-02-28T01:56:20;7.70;;;7.00;;
11006;SDS011;8186;57.652;11.968;2024-02-28T01:58:49;10.67;;;8.17;;
11006;SDS011;8186;57.652;11.968;2024-02-28T02:01:18;9.63;;;7.30;;
11006;SDS011;8186;57.652;11.968;2024-02-28T02:03:45;9.03;;;7.80;;
11006;SDS011;8186;57.652;11.968;2024-02-28T02:06:12;9.03;;;6.83;;
11006;SDS011;8186;57.652;11.968;2024-02-28T02:08:38;10.17;;;6.27;;
11006;SDS011;8186;57.652;11.968;2024-02-28T02:11:05;8.03;;;7.07;;
11006;SDS011;8186;57.652;11.968;2024-02-28T02:13:32;6.47;;;5.60;;
11006;SDS011;8186;57.652;11.968;2024-02-28T02:16:00;8.00;;;7.20;;
11006;SDS011;8186;57.652;11.968;2024-02-28T02:18:28;8.00;;;6.43;;
11006;SDS011;8186;57.652;11.968;2024-02-28T02:20:58;8.07;;;6.57;;
11006;SDS011;8186;57.652;11.968;2024-02-28T02:23:29;8.27;;;7.40;;
11006;SDS011;8186;57.652;11.968;2024-02-28T02:25:55;8.80;;;6.87;;
11006;SDS011;8186;57.652;11.968;2024-02-28T02:28:22;8.40;;;6.57;;
11006;SDS011;8186;57.652;11.968;2024-02-28T02:30:49;8.37;;;7.53;;
11006;SDS011;8186;57.652;11.968;2024-02-28T02:33:16;6.90;;;6.10;;
11006;SDS011;8186;57.652;11.968;2024-02-28T02:35:43;8.20;;;7.03;;
11006;SDS011;8186;57.652;11.968;2024-02-28T02:38:10;7.63;;;6.57;;
11006;SDS011;8186;57.652;11.968;2024-02-28T02:40:38;8.13;;;5.43;;
11006;SDS011;8186;57.652;11.968;2024-02-28T02:43:04;9.43;;;7.80;;
11006;SDS011;8186;57.652;11.968;2024-02-28T02:45:31;6.17;;;5.20;;
11006;SDS011;8186;57.652;11.968;2024-02-28T02:47:58;7.50;;;6.37;;
11006;SDS011;8186;57.652;11.968;2024-02-28T02:50:25;8.10;;;7.27;;
11006;SDS011;8186;57.652;11.968;2024-02-28T02:52:52;10.30;;;6.73;;
11006;SDS011;8186;57.652;11.968;2024-02-28T02:55:19;7.57;;;6.70;;
11006;SDS011;8186;57.652;11.968;2024-02-28T02:57:47;6.67;;;5.80;;
11006;SDS011;8186;57.652;11.968;2024-02-28T03:00:14;7.57;;;6.50;;
11006;SDS011;8186;57.652;11.968;2024-02-28T03:02:41;8.87;;;6.30;;
11006;SDS011;8186;57.652;11.968;2024-02-28T03:05:08;7.37;;;6.67;;
11006;SDS011;8186;57.652;11.968;2024-02-28T03:07:35;7.87;;;6.77;;
11006;SDS011;8186;57.652;11.968;2024-02-28T03:10:02;7.27;;;6.57;;
11006;SDS011;8186;57.652;11.968;2024-02-28T03:12:29;6.90;;;6.20;;
11006;SDS011;8186;57.652;11.968;2024-02-28T03:14:59;8.93;;;6.40;;
11006;SDS011;8186;57.652;11.968;2024-02-28T03:17:26;9.07;;;7.43;;
11006;SDS011;8186;57.652;11.968;2024-02-28T03:19:52;7.37;;;5.83;;
11006;SDS011;8186;57.652;11.968;2024-02-28T03:22:19;8.20;;;6.07;;
11006;SDS011;8186;57.652;11.968;2024-02-28T03:24:46;7.77;;;6.30;;
11006;SDS011;8186;57.652;11.968;2024-02-28T03:27:13;7.77;;;6.77;;
11006;SDS011;8186;57.652;11.968;2024-02-28T03:29:40;7.70;;;6.47;;
11006;SDS011;8186;57.652;11.968;2024-02-28T03:32:08;8.63;;;7.17;;
11006;SDS011;8186;57.652;11.968;2024-02-28T03:34:35;8.17;;;6.47;;
11006;SDS011;8186;57.652;11.968;2024-02-28T03:37:02;7.40;;;6.07;;
11006;SDS011;8186;57.652;11.968;2024-02-28T03:39:29;7.90;;;6.37;;
11006;SDS011;8186;57.652;11.968;2024-02-28T03:41:56;7.90;;;6.83;;
11006;SDS011;8186;57.652;11.968;2024-02-28T03:44:22;9.67;;;6.97;;
11006;SDS011;8186;57.652;11.968;2024-02-28T03:46:51;9.20;;;7.80;;
11006;SDS011;8186;57.652;11.968;2024-02-28T03:49:19;8.70;;;7.80;;
11006;SDS011;8186;57.652;11.968;2024-02-28T03:51:46;10.33;;;8.07;;
11006;SDS011;8186;57.652;11.968;2024-02-28T03:54:12;9.83;;;7.63;;
11006;SDS011;8186;57.652;11.968;2024-02-28T03:56:39;8.50;;;7.60;;
11006;SDS011;8186;57.652;11.968;2024-02-28T03:59:06;9.17;;;8.00;;
11006;SDS011;8186;57.652;11.968;2024-02-28T04:01:33;10.80;;;7.60;;
11006;SDS011;8186;57.652;11.968;2024-02-28T04:04:00;8.60;;;7.20;;
11006;SDS011;8186;57.652;11.968;2024-02-28T04:06:29;9.63;;;8.50;;
11006;SDS011;8186;57.652;11.968;2024-02-28T04:08:56;8.83;;;7.80;;
11006;SDS011;8186;57.652;11.968;2024-02-28T04:11:22;9.00;;;7.70;;
11006;SDS011;8186;57.652;11.968;2024-02-28T04:13:49;9.40;;;8.10;;
11006;SDS011;8186;57.652;11.968;2024-02-28T04:16:16;8.20;;;7.20;;
11006;SDS011;8186;57.652;11.968;2024-02-28T04:18:43;10.33;;;7.70;;
11006;SDS011;8186;57.652;11.968;2024-02-28T04:21:10;11.53;;;8.60;;
11006;SDS011;8186;57.652;11.968;2024-02-28T04:23:38;8.30;;;7.27;;
11006;SDS011;8186;57.652;11.968;2024-02-28T04:26:06;8.87;;;7.97;;
11006;SDS011;8186;57.652;11.968;2024-02-28T04:28:33;9.30;;;8.20;;
11006;SDS011;8186;57.652;11.968;2024-02-28T04:31:00;10.93;;;8.87;;
11006;SDS011;8186;57.652;11.968;2024-02-28T04:33:27;8.30;;;6.83;;
11006;SDS011;8186;57.652;11.968;2024-02-28T04:35:54;11.47;;;7.87;;
11006;SDS011;8186;57.652;11.968;2024-02-28T04:38:21;10.13;;;8.13;;
11006;SDS011;8186;57.652;11.968;2024-02-28T04:40:49;10.97;;;9.00;;
11006;SDS011;8186;57.652;11.968;2024-02-28T04:43:16;9.70;;;8.33;;
11006;SDS011;8186;57.652;11.968;2024-02-28T04:45:43;7.73;;;6.80;;
11006;SDS011;8186;57.652;11.968;2024-02-28T04:48:09;9.57;;;8.57;;
11006;SDS011;8186;57.652;11.968;2024-02-28T04:50:37;9.17;;;7.73;;
11006;SDS011;8186;57.652;11.968;2024-02-28T04:53:03;10.53;;;8.40;;
11006;SDS011;8186;57.652;11.968;2024-02-28T04:55:30;10.07;;;8.83;;
11006;SDS011;8186;57.652;11.968;2024-02-28T04:57:58;11.50;;;8.87;;
11006;SDS011;8186;57.652;11.968;2024-02-28T05:00:26;9.47;;;7.97;;
11006;SDS011;8186;57.652;11.968;2024-02-28T05:02:52;10.13;;;8.73;;
11006;SDS011;8186;57.652;11.968;2024-02-28T05:05:19;18.13;;;7.23;;
11006;SDS011;8186;57.652;11.968;2024-02-28T05:07:46;9.90;;;8.90;;
11006;SDS011;8186;57.652;11.968;2024-02-28T05:10:13;8.77;;;7.87;;
11006;SDS011;8186;57.652;11.968;2024-02-28T05:12:40;9.60;;;8.03;;
11006;SDS011;8186;57.652;11.968;2024-02-28T05:15:11;17.43;;;8.43;;
11006;SDS011;8186;57.652;11.968;2024-02-28T05:17:38;9.60;;;7.80;;
11006;SDS011;8186;57.652;11.968;2024-02-28T05:20:05;9.97;;;7.50;;
11006;SDS011;8186;57.652;11.968;2024-02-28T05:22:34;9.63;;;8.23;;
11006;SDS011;8186;57.652;11.968;2024-02-28T05:25:01;10.27;;;8.90;;
11006;SDS011;8186;57.652;11.968;2024-02-28T05:27:27;7.93;;;6.60;;
11006;SDS011;8186;57.652;11.968;2024-02-28T05:29:54;11.57;;;8.87;;
11006;SDS011;8186;57.652;11.968;2024-02-28T05:32:22;11.80;;;7.20;;
11006;SDS011;8186;57.652;11.968;2024-02-28T05:34:49;10.40;;;8.43;;
11006;SDS011;8186;57.652;11.968;2024-02-28T05:37:16;11.20;;;8.50;;
11006;SDS011;8186;57.652;11.968;2024-02-28T05:39:44;9.13;;;8.23;;
11006;SDS011;8186;57.652;11.968;2024-02-28T05:42:10;13.37;;;8.73;;
11006;SDS011;8186;57.652;11.968;2024-02-28T05:44:38;11.10;;;8.80;;
11006;SDS011;8186;57.652;11.968;2024-02-28T05:47:05;9.93;;;8.50;;
11006;SDS011;8186;57.652;11.968;2024-02-28T05:49:33;12.80;;;8.93;;
11006;SDS011;8186;57.652;11.968;2024-02-28T05:52:00;11.20;;;9.00;;
11006;SDS011;8186;57.652;11.968;2024-02-28T05:54:27;12.57;;;9.43;;
11006;SDS011;8186;57.652;11.968;2024-02-28T05:56:54;11.10;;;8.10;;
11006;SDS011;8186;57.652;11.968;2024-02-28T05:59:21;13.97;;;8.70;;
11006;SDS011;8186;57.652;11.968;2024-02-28T06:01:48;10.23;;;8.47;;
11006;SDS011;8186;57.652;11.968;2024-02-28T06:04:15;12.83;;;9.00;;
11006;SDS011;8186;57.652;11.968;2024-02-28T06:06:43;11.77;;;10.27;;
11006;SDS011;8186;57.652;11.968;2024-02-28T06:09:10;13.20;;;8.43;;
11006;SDS011;8186;57.652;11.968;2024-02-28T06:11:37;10.57;;;8.53;;
11006;SDS011;8186;57.652;11.968;2024-02-28T06:14:03;10.87;;;7.90;;
11006;SDS011;8186;57.652;11.968;2024-02-28T06:16:30;10.17;;;8.73;;
11006;SDS011;8186;57.652;11.968;2024-02-28T06:18:57;9.40;;;7.47;;
11006;SDS011;8186;57.652;11.968;2024-02-28T06:21:25;8.33;;;6.77;;
11006;SDS011;8186;57.652;11.968;2024-02-28T06:23:53;10.23;;;8.20;;
11006;SDS011;8186;57.652;11.968;2024-02-28T06:26:20;8.43;;;7.07;;
11006;SDS011;8186;57.652;11.968;2024-02-28T06:28:47;8.77;;;7.30;;
11006;SDS011;8186;57.652;11.968;2024-02-28T06:31:16;8.57;;;6.63;;
11006;SDS011;8186;57.652;11.968;2024-02-28T06:33:43;8.90;;;6.23;;
11006;SDS011;8186;57.652;11.968;2024-02-28T06:36:10;9.70;;;7.07;;
11006;SDS011;8186;57.652;11.968;2024-02-28T06:38:36;8.50;;;6.00;;
11006;SDS011;8186;57.652;11.968;2024-02-28T06:41:05;8.80;;;4.27;;
11006;SDS011;8186;57.652;11.968;2024-02-28T06:43:32;9.30;;;6.47;;
11006;SDS011;8186;57.652;11.968;2024-02-28T06:46:00;10.83;;;6.87;;
11006;SDS011;8186;57.652;11.968;2024-02-28T06:48:27;12.53;;;6.50;;
11006;SDS011;8186;57.652;11.968;2024-02-28T06:50:54;7.47;;;6.30;;
11006;SDS011;8186;57.652;11.968;2024-02-28T06:53:21;8.60;;;6.00;;
11006;SDS011;8186;57.652;11.968;2024-02-28T06:55:48;10.97;;;6.70;;
11006;SDS011;8186;57.652;11.968;2024-02-28T06:58:16;9.73;;;7.53;;
11006;SDS011;8186;57.652;11.968;2024-02-28T07:00:43;9.97;;;6.17;;
11006;SDS011;8186;57.652;11.968;2024-02-28T07:03:09;12.80;;;7.33;;
11006;SDS011;8186;57.652;11.968;2024-02-28T07:05:36;12.03;;;7.13;;
11006;SDS011;8186;57.652;11.968;2024-02-28T07:08:03;8.23;;;6.40;;
11006;SDS011;8186;57.652;11.968;2024-02-28T07:10:30;9.90;;;7.03;;
11006;SDS011;8186;57.652;11.968;2024-02-28T07:12:57;8.10;;;6.60;;
11006;SDS011;8186;57.652;11.968;2024-02-28T07:15:26;8.57;;;5.73;;
11006;SDS011;8186;57.652;11.968;2024-02-28T07:17:52;7.03;;;5.37;;
11006;SDS011;8186;57.652;11.968;2024-02-28T07:20:19;11.70;;;5.90;;
11006;SDS011;8186;57.652;11.968;2024-02-28T07:22:46;8.10;;;6.00;;
11006;SDS011;8186;57.652;11.968;2024-02-28T07:25:13;10.73;;;6.77;;
11006;SDS011;8186;57.652;11.968;2024-02-28T07:27:40;11.10;;;6.87;;
11006;SDS011;8186;57.652;11.968;2024-02-28T07:30:07;10.70;;;7.90;;
11006;SDS011;8186;57.652;11.968;2024-02-28T07:32:36;13.03;;;8.50;;
11006;SDS011;8186;57.652;11.968;2024-02-28T07:35:03;14.73;;;8.37;;
11006;SDS011;8186;57.652;11.968;2024-02-28T07:37:30;11.80;;;8.70;;
11006;SDS011;8186;57.652;11.968;2024-02-28T07:39:57;7.30;;;5.87;;
11006;SDS011;8186;57.652;11.968;2024-02-28T07:42:24;12.63;;;6.80;;
11006;SDS011;8186;57.652;11.968;2024-02-28T07:44:51;10.30;;;7.27;;
11006;SDS011;8186;57.652;11.968;2024-02-28T07:47:22;13.80;;;6.83;;
11006;SDS011;8186;57.652;11.968;2024-02-28T07:49:51;9.87;;;6.83;;
11006;SDS011;8186;57.652;11.968;2024-02-28T07:52:18;11.43;;;6.97;;
11006;SDS011;8186;57.652;11.968;2024-02-28T07:54:45;15.10;;;7.50;;
11006;SDS011;8186;57.652;11.968;2024-02-28T07:57:12;10.10;;;7.40;;
11006;SDS011;8186;57.652;11.968;2024-02-28T07:59:40;11.90;;;7.63;;
11006;SDS011;8186;57.652;11.968;2024-02-28T08:02:07;9.17;;;6.73;;
11006;SDS011;8186;57.652;11.968;2024-02-28T08:04:35;10.47;;;7.10;;
11006;SDS011;8186;57.652;11.968;2024-02-28T08:07:03;10.53;;;6.67;;
11006;SDS011;8186;57.652;11.968;2024-02-28T08:09:31;12.07;;;7.03;;
11006;SDS011;8186;57.652;11.968;2024-02-28T08:11:57;12.40;;;6.87;;
11006;SDS011;8186;57.652;11.968;2024-02-28T08:14:24;10.23;;;8.13;;
11006;SDS011;8186;57.652;11.968;2024-02-28T08:16:51;14.13;;;6.30;;
11006;SDS011;8186;57.652;11.968;2024-02-28T08:19:18;10.73;;;8.33;;
11006;SDS011;8186;57.652;11.968;2024-02-28T08:21:45;11.30;;;6.97;;
11006;SDS011;8186;57.652;11.968;2024-02-28T08:24:13;12.53;;;7.63;;
11006;SDS011;8186;57.652;11.968;2024-02-28T08:26:40;16.57;;;8.77;;
11006;SDS011;8186;57.652;11.968;2024-02-28T08:29:07;17.23;;;9.53;;
11006;SDS011;8186;57.652;11.968;2024-02-28T08:31:39;13.47;;;9.00;;
11006;SDS011;8186;57.652;11.968;2024-02-28T08:34:06;13.27;;;9.80;;
11006;SDS011;8186;57.652;11.968;2024-02-28T08:36:33;13.80;;;9.10;;
11006;SDS011;8186;57.652;11.968;2024-02-28T08:39:00;14.07;;;9.50;;
11006;SDS011;8186;57.652;11.968;2024-02-28T08:41:31;13.73;;;9.60;;
11006;SDS011;8186;57.652;11.968;2024-02-28T08:43:59;16.83;;;10.67;;
11006;SDS011;8186;57.652;11.968;2024-02-28T08:46:26;17.97;;;10.83;;
11006;SDS011;8186;57.652;11.968;2024-02-28T08:48:53;16.57;;;10.67;;
11006;SDS011;8186;57.652;11.968;2024-02-28T08:51:20;14.07;;;10.50;;
11006;SDS011;8186;57.652;11.968;2024-02-28T08:53:46;17.77;;;10.07;;
11006;SDS011;8186;57.652;11.968;2024-02-28T08:56:13;13.73;;;9.23;;
11006;SDS011;8186;57.652;11.968;2024-02-28T08:58:42;15.57;;;10.03;;
11006;SDS011;8186;57.652;11.968;2024-02-28T09:01:13;15.07;;;10.23;;
11006;SDS011;8186;57.652;11.968;2024-02-28T09:03:40;15.70;;;10.70;;
11006;SDS011;8186;57.652;11.968;2024-02-28T09:06:07;12.80;;;9.23;;
11006;SDS011;8186;57.652;11.968;2024-02-28T09:08:34;17.70;;;10.90;;
11006;SDS011;8186;57.652;11.968;2024-02-28T09:11:01;15.50;;;10.67;;
11006;SDS011;8186;57.652;11.968;2024-02-28T09:13:29;19.27;;;12.30;;
11006;SDS011;8186;57.652;11.968;2024-02-28T09:15:58;20.57;;;12.70;;
11006;SDS011;8186;57.652;11.968;2024-02-28T09:18:24;19.20;;;12.47;;
11006;SDS011;8186;57.652;11.968;2024-02-28T09:20:51;21.63;;;12.23;;
11006;SDS011;8186;57.652;11.968;2024-02-28T09:23:18;17.90;;;12.57;;
11006;SDS011;8186;57.652;11.968;2024-02-28T09:25:46;21.93;;;12.67;;
11006;SDS011;8186;57.652;11.968;2024-02-28T09:28:13;20.37;;;13.27;;
11006;SDS011;8186;57.652;11.968;2024-02-28T09:30:41;15.67;;;11.60;;
11006;SDS011;8186;57.652;11.968;2024-02-28T09:33:09;19.70;;;11.00;;
11006;SDS011;8186;57.652;11.968;2024-02-28T09:35:37;26.27;;;14.93;;
11006;SDS011;8186;57.652;11.968;2024-02-28T09:38:04;20.97;;;13.77;;
11006;SDS011;8186;57.652;11.968;2024-02-28T09:40:31;20.70;;;14.57;;
11006;SDS011;8186;57.652;11.968;2024-02-28T09:43:00;22.60;;;14.77;;
11006;SDS011;8186;57.652;11.968;2024-02-28T09:45:28;28.37;;;16.80;;
11006;SDS011;8186;57.652;11.968;2024-02-28T09:47:56;26.13;;;15.77;;
11006;SDS011;8186;57.652;11.968;2024-02-28T09:50:25;26.37;;;15.63;;
11006;SDS011;8186;57.652;11.968;2024-02-28T09:52:53;24.37;;;15.50;;
11006;SDS011;8186;57.652;11.968;2024-02-28T09:55:20;27.47;;;16.63;;
11006;SDS011;8186;57.652;11.968;2024-02-28T09:57:47;25.17;;;15.93;;
11006;SDS011;8186;57.652;11.968;2024-02-28T10:00:15;26.13;;;13.47;;
11006;SDS011;8186;57.652;11.968;2024-02-28T10:02:45;27.30;;;17.30;;
11006;SDS011;8186;57.652;11.968;2024-02-28T10:05:13;26.13;;;14.67;;
11006;SDS011;8186;57.652;11.968;2024-02-28T10:07:42;26.77;;;16.13;;
11006;SDS011;8186;57.652;11.968;2024-02-28T10:10:09;27.90;;;16.80;;
11006;SDS011;8186;57.652;11.968;2024-02-28T10:12:36;26.80;;;16.00;;
11006;SDS011;8186;57.652;11.968;2024-02-28T10:15:07;25.77;;;16.30;;
11006;SDS011;8186;57.652;11.968;2024-02-28T10:17:35;26.97;;;16.03;;
11006;SDS011;8186;57.652;11.968;2024-02-28T10:20:02;26.63;;;16.23;;
11006;SDS011;8186;57.652;11.968;2024-02-28T10:22:33;26.73;;;13.33;;
11006;SDS011;8186;57.652;11.968;2024-02-28T10:25:02;31.93;;;18.57;;
11006;SDS011;8186;57.652;11.968;2024-02-28T10:27:31;29.93;;;18.83;;
11006;SDS011;8186;57.652;11.968;2024-02-28T10:29:58;29.07;;;16.90;;
11006;SDS011;8186;57.652;11.968;2024-02-28T10:32:26;24.97;;;13.00;;
11006;SDS011;8186;57.652;11.968;2024-02-28T10:34:53;31.23;;;18.13;;
11006;SDS011;8186;57.652;11.968;2024-02-28T10:37:20;23.47;;;14.77;;
11006;SDS011;8186;57.652;11.968;2024-02-28T10:39:48;30.33;;;17.03;;
11006;SDS011;8186;57.652;11.968;2024-02-28T10:42:16;33.40;;;16.87;;
11006;SDS011;8186;57.652;11.968;2024-02-28T10:44:45;31.70;;;17.43;;
11006;SDS011;8186;57.652;11.968;2024-02-28T10:47:17;29.67;;;18.20;;
11006;SDS011;8186;57.652;11.968;2024-02-28T10:49:44;28.03;;;17.30;;
11006;SDS011;8186;57.652;11.968;2024-02-28T10:52:11;27.23;;;17.63;;
11006;SDS011;8186;57.652;11.968;2024-02-28T10:54:39;30.50;;;16.57;;
11006;SDS011;8186;57.652;11.968;2024-02-28T10:57:08;33.13;;;19.10;;
11006;SDS011;8186;57.652;11.968;2024-02-28T10:59:40;27.30;;;16.70;;
11006;SDS011;8186;57.652;11.968;2024-02-28T11:02:07;33.20;;;16.63;;
11006;SDS011;8186;57.652;11.968;2024-02-28T11:04:34;27.10;;;14.97;;
11006;SDS011;8186;57.652;11.968;2024-02-28T11:07:01;28.07;;;16.37;;
11006;SDS011;8186;57.652;11.968;2024-02-28T11:09:28;28.10;;;15.77;;
11006;SDS011;8186;57.652;11.968;2024-02-28T11:11:57;29.27;;;16.10;;
11006;SDS011;8186;57.652;11.968;2024-02-28T11:14:24;28.83;;;16.93;;
11006;SDS011;8186;57.652;11.968;2024-02-28T11:17:00;25.67;;;15.30;;
11006;SDS011;8186;57.652;11.968;2024-02-28T11:19:28;33.53;;;17.77;;
11006;SDS011;8186;57.652;11.968;2024-02-28T11:21:56;27.03;;;17.03;;
11006;SDS011;8186;57.652;11.968;2024-02-28T11:24:23;30.10;;;16.90;;
11006;SDS011;8186;57.652;11.968;2024-02-28T11:26:51;33.53;;;17.20;;
11006;SDS011;8186;57.652;11.968;2024-02-28T11:29:22;27.73;;;16.43;;
11006;SDS011;8186;57.652;11.968;2024-02-28T11:31:50;30.33;;;15.80;;
11006;SDS011;8186;57.652;11.968;2024-02-28T11:34:18;31.67;;;16.50;;
11006;SDS011;8186;57.652;11.968;2024-02-28T11:36:46;25.97;;;13.23;;
11006;SDS011;8186;57.652;11.968;2024-02-28T11:39:14;25.97;;;14.77;;
11006;SDS011;8186;57.652;11.968;2024-02-28T11:41:41;31.93;;;17.00;;
11006;SDS011;8186;57.652;11.968;2024-02-28T11:44:11;31.93;;;15.73;;
11006;SDS011;8186;57.652;11.968;2024-02-28T11:46:42;28.97;;;15.30;;
11006;SDS011;8186;57.652;11.968;2024-02-28T11:49:09;27.67;;;15.30;;
11006;SDS011;8186;57.652;11.968;2024-02-28T11:51:38;29.30;;;14.87;;
11006;SDS011;8186;57.652;11.968;2024-02-28T11:54:07;25.33;;;15.87;;
11006;SDS011;8186;57.652;11.968;2024-02-28T11:56:33;28.40;;;14.87;;
11006;SDS011;8186;57.652;11.968;2024-02-28T11:59:00;33.07;;;15.63;;
11006;SDS011;8186;57.652;11.968;2024-02-28T12:01:33;27.03;;;16.23;;
11006;SDS011;8186;57.652;11.968;2024-02-28T12:04:01;22.67;;;12.70;;
11006;SDS011;8186;57.652;11.968;2024-02-28T12:06:30;28.30;;;14.50;;
11006;SDS011;8186;57.652;11.968;2024-02-28T12:08:58;26.60;;;14.37;;
11006;SDS011;8186;57.652;11.968;2024-02-28T12:11:25;22.07;;;12.60;;
11006;SDS011;8186;57.652;11.968;2024-02-28T12:13:53;28.83;;;14.77;;
11006;SDS011;8186;57.652;11.968;2024-02-28T12:16:22;24.97;;;13.90;;
11006;SDS011;8186;57.652;11.968;2024-02-28T12:18:49;25.80;;;13.87;;
11006;SDS011;8186;57.652;11.968;2024-02-28T12:21:17;31.90;;;14.70;;
11006;SDS011;8186;57.652;11.968;2024-02-28T12:23:45;21.73;;;13.17;;
11006;SDS011;8186;57.652;11.968;2024-02-28T12:26:16;27.83;;;14.67;;
11006;SDS011;8186;57.652;11.968;2024-02-28T12:28:43;28.40;;;15.83;;
11006;SDS011;8186;57.652;11.968;2024-02-28T12:31:10;30.90;;;14.10;;
11006;SDS011;8186;57.652;11.968;2024-02-28T12:33:38;22.00;;;12.73;;
11006;SDS011;8186;57.652;11.968;2024-02-28T12:36:05;31.20;;;16.03;;
11006;SDS011;8186;57.652;11.968;2024-02-28T12:38:33;26.47;;;14.33;;
11006;SDS011;8186;57.652;11.968;2024-02-28T12:40:59;33.50;;;15.27;;
11006;SDS011;8186;57.652;11.968;2024-02-28T12:43:29;34.67;;;15.50;;
11006;SDS011;8186;57.652;11.968;2024-02-28T12:45:57;26.83;;;14.30;;
11006;SDS011;8186;57.652;11.968;2024-02-28T12:48:24;22.80;;;13.27;;
11006;SDS011;8186;57.652;11.968;2024-02-28T12:50:51;26.30;;;14.27;;
11006;SDS011;8186;57.652;11.968;2024-02-28T12:53:18;24.37;;;12.83;;
11006;SDS011;8186;57.652;11.968;2024-02-28T12:55:44;27.30;;;13.63;;
11006;SDS011;8186;57.652;11.968;2024-02-28T12:58:11;31.63;;;13.40;;
11006;SDS011;8186;57.652;11.968;2024-02-28T13:00:39;25.47;;;11.87;;
11006;SDS011;8186;57.652;11.968;2024-02-28T13:03:06;23.50;;;12.37;;
11006;SDS011;8186;57.652;11.968;2024-02-28T13:05:33;21.10;;;9.43;;
11006;SDS011;8186;57.652;11.968;2024-02-28T13:08:00;24.07;;;10.70;;
11006;SDS011;8186;57.652;11.968;2024-02-28T13:10:27;22.47;;;12.07;;
11006;SDS011;8186;57.652;11.968;2024-02-28T13:12:54;32.40;;;13.20;;
11006;SDS011;8186;57.652;11.968;2024-02-28T13:15:21;27.97;;;10.87;;
11006;SDS011;8186;57.652;11.968;2024-02-28T13:17:49;18.30;;;10.80;;
11006;SDS011;8186;57.652;11.968;2024-02-28T13:20:17;25.40;;;11.77;;
11006;SDS011;8186;57.652;11.968;2024-02-28T13:22:44;35.57;;;12.83;;
11006;SDS011;8186;57.652;11.968;2024-02-28T13:25:11;25.57;;;12.10;;
11006;SDS011;8186;57.652;11.968;2024-02-28T13:27:39;25.10;;;11.63;;
11006;SDS011;8186;57.652;11.968;2024-02-28T13:30:06;24.37;;;11.60;;
11006;SDS011;8186;57.652;11.968;2024-02-28T13:32:34;27.30;;;11.77;;
11006;SDS011;8186;57.652;11.968;2024-02-28T13:35:02;25.30;;;13.27;;
11006;SDS011;8186;57.652;11.968;2024-02-28T13:37:29;25.13;;;11.47;;
11006;SDS011;8186;57.652;11.968;2024-02-28T13:39:57;23.90;;;11.80;;
11006;SDS011;8186;57.652;11.968;2024-02-28T13:42:24;24.33;;;10.83;;
11006;SDS011;8186;57.652;11.968;2024-02-28T13:44:51;23.57;;;11.80;;
11006;SDS011;8186;57.652;11.968;2024-02-28T13:47:18;29.37;;;13.87;;
11006;SDS011;8186;57.652;11.968;2024-02-28T13:49:45;25.23;;;12.90;;
11006;SDS011;8186;57.652;11.968;2024-02-28T13:52:14;25.37;;;12.77;;
11006;SDS011;8186;57.652;11.968;2024-02-28T13:54:40;25.43;;;12.33;;
11006;SDS011;8186;57.652;11.968;2024-02-28T13:57:07;19.83;;;10.73;;
11006;SDS011;8186;57.652;11.968;2024-02-28T13:59:34;23.67;;;12.17;;
11006;SDS011;8186;57.652;11.968;2024-02-28T14:02:01;22.40;;;11.47;;
11006;SDS011;8186;57.652;11.968;2024-02-28T14:04:28;27.80;;;12.90;;
11006;SDS011;8186;57.652;11.968;2024-02-28T14:06:54;28.97;;;12.93;;
11006;SDS011;8186;57.652;11.968;2024-02-28T14:09:23;32.33;;;13.03;;
11006;SDS011;8186;57.652;11.968;2024-02-28T14:11:50;31.40;;;13.33;;
11006;SDS011;8186;57.652;11.968;2024-02-28T14:14:16;26.13;;;12.90;;
11006;SDS011;8186;57.652;11.968;2024-02-28T14:16:43;27.60;;;13.17;;
11006;SDS011;8186;57.652;11.968;2024-02-28T14:19:10;27.20;;;12.63;;
11006;SDS011;8186;57.652;11.968;2024-02-28T14:21:37;19.13;;;12.67;;
11006;SDS011;8186;57.652;11.968;2024-02-28T14:24:04;28.20;;;12.43;;
11006;SDS011;8186;57.652;11.968;2024-02-28T14:26:33;32.73;;;14.27;;
11006;SDS011;8186;57.652;11.968;2024-02-28T14:29:00;24.70;;;14.40;;
11006;SDS011;8186;57.652;11.968;2024-02-28T14:31:27;25.27;;;12.23;;
11006;SDS011;8186;57.652;11.968;2024-02-28T14:33:54;29.53;;;15.17;;